Time;durP1;ratioP1;P1;durP2;ratioP2;P2;SDS_P1;SDS_P2;PMS_P1;PMS_P2;Temp;Humidity;BMP_temperature;BMP_pressure;BME280_temperature;BME280_humidity;BME280_pressure;Samples;Min_cycle;Max_cycle;Signal;HPM_P1;HPM_P2
2022/02/25 00:51:27;;;;;;;;;;;9.80;99.90;;;0.46;100.00;101317.34;2570607;30;138181;-38
2022/02/25 06:51:59;;;;;;;;;;;2.60;99.90;;;0.06;100.00;101460.31;2565950;30;136970;-40
2022/02/25 06:54:27;;;;;;;;;;;2.00;99.90;;;0.30;100.00;101497.69;2568336;30;137181;-40
2022/02/25 06:56:54;;;;;;;;;;;2.00;99.90;;;0.38;100.00;101495.22;2568021;30;138334;-40
2022/02/25 06:59:22;;;;;;;;;;;2.10;99.90;;;0.44;100.00;101493.84;2567818;30;137380;-40
2022/02/25 07:01:49;;;;;;;;;;;2.20;99.90;;;0.47;100.00;101490.91;2568446;30;137411;-40
2022/02/25 07:04:17;;;;;;;;;;;2.20;99.90;;;0.53;100.00;101500.25;2568044;30;137418;-40
2022/02/25 07:06:44;;;;;;;;;;;2.30;99.90;;;0.59;100.00;101498.88;2569423;30;137358;-40
2022/02/25 07:09:15;;;;;;;;;;;2.30;99.90;;;0.63;100.00;101505.69;2569240;30;136849;-40
2022/02/25 07:11:42;;;;;;;;;;;2.40;99.90;;;0.79;100.00;101506.09;2567623;30;137442;-40
2022/02/25 07:14:10;;;;;;;;;;;2.50;99.90;;;0.98;100.00;101501.84;2569827;30;136976;-40
2022/02/25 07:16:37;;;;;;;;;;;2.60;99.90;;;1.06;100.00;101501.16;2565825;30;137987;-40
2022/02/25 07:19:04;;;;;;;;;;;2.70;99.90;;;1.25;100.00;101505.81;2568908;30;137310;-40
2022/02/25 07:21:32;;;;;;;;;;;2.90;99.90;;;1.34;100.00;101501.47;2568077;30;138276;-40
2022/02/25 07:23:59;;;;;;;;;;;3.00;99.90;;;1.39;100.00;101497.34;2567838;30;138066;-40
2022/02/25 07:26:27;;;;;;;;;;;3.10;99.90;;;1.49;100.00;101505.47;2566420;30;138764;-40
2022/02/25 07:28:54;;;;;;;;;;;3.10;99.90;;;1.56;100.00;101503.94;2568394;30;136918;-40
2022/02/25 07:31:22;;;;;;;;;;;3.20;99.90;;;1.62;100.00;101505.22;2567738;30;137784;-40
2022/02/25 07:33:49;;;;;;;;;;;3.30;99.90;;;1.57;100.00;101505.63;2567980;30;137907;-40
2022/02/25 07:36:17;;;;;;;;;;;3.30;99.90;;;1.56;100.00;101512.00;2567827;30;138460;-40
2022/02/25 07:38:44;;;;;;;;;;;3.30;99.90;;;1.64;100.00;101522.06;2567888;30;137396;-40
2022/02/25 07:41:11;;;;;;;;;;;3.40;99.90;;;1.67;100.00;101512.91;2568073;30;138302;-39
2022/02/25 07:43:40;;;;;;;;;;;3.40;99.90;;;1.69;100.00;101516.28;2568756;30;137048;-39
2022/02/25 07:46:07;;;;;;;;;;;3.40;99.90;;;1.69;100.00;101524.38;2567965;30;138178;-39
2022/02/25 07:48:39;;;;;;;;;;;3.40;99.90;;;1.74;100.00;101523.97;2567837;30;136968;-39
2022/02/25 07:51:07;;;;;;;;;;;3.40;99.90;;;1.78;100.00;101520.84;2567857;30;138392;-40
2022/02/25 07:53:34;;;;;;;;;;;3.50;99.90;;;1.82;100.00;101524.97;2567884;30;137005;-40
2022/02/25 07:56:02;;;;;;;;;;;3.50;99.90;;;1.83;100.00;101523.97;2568910;30;138338;-40
2022/02/25 07:58:31;;;;;;;;;;;3.50;99.90;;;1.85;100.00;101524.69;2567233;30;136903;-40
2022/02/25 08:00:59;;;;;;;;;;;3.50;99.90;;;1.84;100.00;101533.75;2567012;30;139150;-40
2022/02/25 08:03:28;;;;;;;;;;;3.60;99.90;;;1.87;100.00;101529.94;2568468;30;137066;-39
2022/02/25 08:05:56;;;;;;;;;;;3.60;99.90;;;1.83;100.00;101542.81;2566225;30;137340;-39
2022/02/25 08:08:23;;;;;;;;;;;3.60;99.90;;;1.84;100.00;101538.28;2569109;30;136797;-40
2022/02/25 08:10:50;;;;;;;;;;;3.50;99.90;;;1.90;100.00;101539.59;2567140;30;138386;-40
2022/02/25 08:13:18;;;;;;;;;;;3.60;99.90;;;1.96;100.00;101534.47;2568177;30;137080;-40
2022/02/25 08:15:45;;;;;;;;;;;3.60;99.90;;;2.03;100.00;101548.25;2569422;30;138426;-40
2022/02/25 08:18:14;;;;;;;;;;;3.70;99.90;;;2.04;100.00;101559.88;2568164;30;136952;-40
2022/02/25 08:20:43;;;;;;;;;;;3.70;99.90;;;2.07;100.00;101573.06;2568134;30;137380;-40
2022/02/25 08:23:10;;;;;;;;;;;3.70;99.90;;;2.10;100.00;101570.91;2567507;30;137411;-40
2022/02/25 08:25:38;;;;;;;;;;;3.70;99.90;;;2.16;100.00;101569.53;2568192;30;137333;-40
2022/02/25 08:28:07;;;;;;;;;;;3.80;99.90;;;2.20;100.00;101564.72;2566546;30;137301;-39
2022/02/25 08:30:37;;;;;;;;;;;3.90;99.90;;;2.19;100.00;101568.41;2566125;30;138387;-39
2022/02/25 08:33:04;;;;;;;;;;;3.90;99.90;;;2.14;100.00;101574.19;2568318;30;136755;-40
2022/02/25 08:35:35;;;;;;;;;;;3.80;99.90;;;2.21;100.00;101571.81;2567237;30;138339;-40
2022/02/25 08:38:04;;;;;;;;;;;3.90;99.90;;;2.28;100.00;101579.19;2568420;30;137207;-40
2022/02/25 08:40:32;;;;;;;;;;;3.90;99.90;;;2.35;100.00;101584.84;2567824;30;138434;-40
2022/02/25 08:43:00;;;;;;;;;;;4.00;99.90;;;2.37;100.00;101577.50;2566495;30;137135;-40
2022/02/25 08:45:28;;;;;;;;;;;4.00;99.90;;;2.44;100.00;101593.94;2567662;30;139274;-40
2022/02/25 08:47:56;;;;;;;;;;;4.10;99.90;;;2.48;100.00;101598.06;2568275;30;137424;-40
2022/02/25 08:50:23;;;;;;;;;;;4.10;99.90;;;2.47;100.00;101590.13;2568116;30;138203;-40
2022/02/25 08:52:53;;;;;;;;;;;4.10;99.90;;;2.49;100.00;101596.22;2568162;30;137239;-40
2022/02/25 08:55:22;;;;;;;;;;;4.20;99.90;;;2.50;100.00;101609.53;2569322;30;137366;-40
2022/02/25 08:57:49;;;;;;;;;;;4.20;99.90;;;2.52;100.00;101601.34;2567289;30;137200;-40
2022/02/25 09:00:22;;;;;;;;;;;4.20;99.90;;;2.58;100.00;101603.47;2568433;30;137281;-40
2022/02/25 09:02:51;;;;;;;;;;;4.20;99.90;;;2.60;100.00;101593.38;2567652;30;136690;-40
2022/02/25 09:05:21;;;;;;;;;;;4.30;99.90;;;2.75;100.00;101612.69;2568301;30;138158;-40
2022/02/25 09:07:51;;;;;;;;;;;4.40;99.90;;;2.82;100.00;101618.38;2567045;30;137332;-40
2022/02/25 09:10:19;;;;;;;;;;;4.40;99.90;;;2.85;100.00;101610.00;2568471;30;137312;-40
2022/02/25 09:12:47;;;;;;;;;;;4.50;99.90;;;3.00;100.00;101618.50;2568544;30;137350;-40
2022/02/25 09:15:22;;;;;;;;;;;4.60;99.90;;;3.17;100.00;101623.16;2568209;30;138450;-40
2022/02/25 09:17:52;;;;;;;;;;;4.70;99.90;;;3.31;100.00;101627.25;2567876;30;136786;-40
2022/02/25 09:20:20;;;;;;;;;;;4.90;99.90;;;3.41;100.00;101634.47;2566277;30;138289;-40
2022/02/25 09:22:48;;;;;;;;;;;5.00;99.90;;;3.48;100.00;101635.63;2569273;30;137131;-40
2022/02/25 09:25:18;;;;;;;;;;;5.10;99.90;;;3.55;100.00;101646.66;2567466;30;139379;-40
2022/02/25 09:27:47;;;;;;;;;;;5.10;99.90;;;3.63;100.00;101643.22;2567553;30;137887;-40
2022/02/25 09:30:15;;;;;;;;;;;5.20;99.90;;;3.65;99.61;101635.84;2567150;30;137189;-40
2022/02/25 09:32:43;;;;;;;;;;;5.20;99.90;;;3.65;100.00;101631.31;2568649;30;137278;-40
2022/02/25 09:35:11;;;;;;;;;;;5.30;99.90;;;3.72;100.00;101645.06;2566945;30;138052;-40
2022/02/25 09:37:38;;;;;;;;;;;5.30;99.90;;;3.75;98.98;101652.88;2569068;30;136971;-40
2022/02/25 09:40:10;;;;;;;;;;;5.30;99.90;;;3.76;99.34;101649.16;2567591;30;138069;-40
2022/02/25 09:42:39;;;;;;;;;;;5.40;99.90;;;3.76;99.64;101651.00;2567413;30;137378;-40
2022/02/25 09:45:08;;;;;;;;;;;5.40;99.90;;;3.82;100.00;101653.97;2566427;30;138556;-40
2022/02/25 09:47:36;;;;;;;;;;;5.40;99.90;;;3.83;98.70;101663.78;2569348;30;136859;-40
2022/02/25 09:50:10;;;;;;;;;;;5.40;99.90;;;3.87;99.67;101670.56;2564992;30;139439;-40
2022/02/25 09:52:39;;;;;;;;;;;5.50;99.90;;;3.97;100.00;101666.97;2566129;30;137093;-40
2022/02/25 09:55:25;;;;;;;;;;;5.50;99.90;;;4.21;100.00;101668.28;2568316;30;138476;-40
2022/02/25 09:57:56;;;;;;;;;;;5.60;99.90;;;4.49;100.00;101674.56;2567794;30;137924;-40
2022/02/25 10:00:24;;;;;;;;;;;5.90;99.90;;;4.52;97.75;101679.66;2566824;30;138679;-40
2022/02/25 10:02:55;;;;;;;;;;;6.00;99.90;;;4.42;95.48;101682.41;2567602;30;137811;-40
2022/02/25 10:05:25;;;;;;;;;;;6.00;99.90;;;4.36;96.58;101679.44;2569138;30;138191;-40
2022/02/25 10:07:53;;;;;;;;;;;6.00;99.90;;;4.45;97.47;101682.09;2569294;30;138067;-40
2022/02/25 10:10:27;;;;;;;;;;;6.00;99.90;;;4.54;96.94;101684.94;2567426;30;138530;-40
2022/02/25 10:13:02;;;;;;;;;;;6.00;99.90;;;4.71;96.48;101691.38;2567242;30;137000;-40
2022/02/25 10:15:35;;;;;;;;;;;6.10;99.90;;;4.86;96.75;101694.38;2566431;30;137465;-40
2022/02/25 10:18:10;;;;;;;;;;;6.30;99.90;;;4.97;97.65;101704.97;2567927;30;137053;-40
2022/02/25 10:20:39;;;;;;;;;;;6.40;99.90;;;5.02;96.11;101709.91;2568621;30;137467;-40
2022/02/25 10:23:16;;;;;;;;;;;6.50;99.90;;;5.02;94.57;101715.34;2568642;30;136911;-40
2022/02/25 10:25:44;;;;;;;;;;;6.50;99.90;;;5.01;93.97;101714.47;2567661;30;138481;-40
2022/02/25 10:28:12;;;;;;;;;;;6.50;99.90;;;5.07;92.85;101709.47;2569392;30;137013;-40
2022/02/25 10:30:39;;;;;;;;;;;6.60;99.90;;;5.15;94.66;101717.66;2568347;30;137684;-40
2022/02/25 10:33:07;;;;;;;;;;;6.70;99.90;;;5.16;92.38;101722.06;2568991;30;137130;-40
2022/02/25 10:35:37;;;;;;;;;;;6.70;99.90;;;5.18;93.64;101717.34;2568749;30;137342;-40
2022/02/25 10:38:20;;;;;;;;;;;6.70;99.90;;;5.22;92.11;101732.25;2568645;30;137352;-40
2022/02/25 10:40:52;;;;;;;;;;;6.80;99.90;;;5.20;90.70;101718.03;2568312;30;138524;-40
2022/02/25 10:43:22;;;;;;;;;;;6.80;99.90;;;5.26;92.13;101725.53;2568380;30;137805;-40
2022/02/25 10:45:57;;;;;;;;;;;6.80;99.90;;;5.52;92.95;101722.03;2567603;30;138275;-40
2022/02/25 10:48:30;;;;;;;;;;;6.90;99.90;;;5.73;89.81;101732.53;2568850;30;137083;-40
2022/02/25 10:51:22;;;;;;;;;;;7.10;99.90;;;5.97;90.72;101730.13;2567507;30;139234;-40
2022/02/25 10:53:51;;;;;;;;;;;7.30;99.90;;;6.33;89.73;101740.84;2568515;30;137638;-41
2022/02/25 10:56:21;;;;;;;;;;;7.60;99.90;;;6.44;86.04;101747.84;2569232;30;138239;-40
2022/02/25 10:58:54;;;;;;;;;;;7.80;99.90;;;6.31;87.43;101742.88;2566759;30;137569;-40
2022/02/25 11:01:34;;;;;;;;;;;7.90;99.90;;;6.18;87.94;101737.91;2568462;30;139134;-40
2022/02/25 11:04:08;;;;;;;;;;;7.80;99.90;;;6.02;86.74;101735.94;2569424;30;136985;-40
2022/02/25 11:06:36;;;;;;;;;;;7.70;99.90;;;5.84;86.71;101739.53;2568740;30;138349;-40
2022/02/25 11:09:05;;;;;;;;;;;7.50;99.90;;;5.68;86.79;101734.00;2567343;30;137016;-40
2022/02/25 11:11:34;;;;;;;;;;;7.40;99.90;;;5.66;88.84;101733.31;2568584;30;138176;-40
2022/02/25 11:14:06;;;;;;;;;;;7.30;99.90;;;5.65;88.95;101726.19;2568852;30;136706;-40
2022/02/25 11:16:36;;;;;;;;;;;7.20;99.90;;;5.62;92.25;101721.94;2566655;30;138726;-40
2022/02/25 11:19:24;;;;;;;;;;;7.20;99.90;;;5.54;94.00;101714.59;2569713;30;136998;-40
2022/02/25 11:21:53;;;;;;;;;;;7.20;99.90;;;5.60;95.96;101711.28;2566875;30;138699;-40
2022/02/25 11:24:22;;;;;;;;;;;7.20;99.90;;;5.86;96.90;101715.84;2569453;30;137451;-40
2022/02/25 11:26:53;;;;;;;;;;;7.30;99.90;;;6.00;94.77;101724.38;2567763;30;138324;-40
2022/02/25 11:29:23;;;;;;;;;;;7.40;99.90;;;5.95;91.38;101721.31;2567444;30;137234;-40
2022/02/25 11:31:56;;;;;;;;;;;7.50;99.90;;;5.97;92.07;101738.25;2568451;30;138103;-40
2022/02/25 11:34:24;;;;;;;;;;;7.50;99.90;;;5.95;90.23;101746.53;2566785;30;137500;-40
2022/02/25 11:36:52;;;;;;;;;;;7.40;99.90;;;5.90;88.24;101740.75;2566452;30;139280;-40
2022/02/25 11:39:30;;;;;;;;;;;7.40;99.90;;;6.01;90.64;101742.38;2568420;30;137273;-40
2022/02/25 11:42:01;;;;;;;;;;;7.50;99.90;;;6.17;90.44;101733.50;2568325;30;137307;-40
2022/02/25 11:44:31;;;;;;;;;;;7.60;99.90;;;6.31;88.55;101738.31;2568225;30;137145;-41
2022/02/25 11:46:59;;;;;;;;;;;7.70;99.90;;;6.46;89.46;101741.28;2566492;30;138433;-40
2022/02/25 11:49:27;;;;;;;;;;;7.90;99.90;;;6.41;88.38;101740.91;2568382;30;137021;-40
2022/02/25 11:51:57;;;;;;;;;;;7.90;99.90;;;6.23;90.55;101734.72;2567592;30;139231;-40
2022/02/25 11:54:34;;;;;;;;;;;7.80;99.90;;;5.78;92.47;101725.78;2567953;30;137973;-40
2022/02/25 11:57:03;;;;;;;;;;;7.60;99.90;;;5.61;94.99;101731.94;2568571;30;138394;-40
2022/02/25 11:59:31;;;;;;;;;;;7.30;99.90;;;5.52;94.77;101730.13;2567646;30;137435;-40
2022/02/25 12:02:17;;;;;;;;;;;7.20;99.90;;;5.46;94.20;101728.06;2568452;30;139195;-40
2022/02/25 12:04:47;;;;;;;;;;;7.10;99.90;;;5.55;97.99;101729.81;2568135;30;137072;-39
2022/02/25 12:07:17;;;;;;;;;;;7.10;99.90;;;5.46;92.67;101742.47;2567811;30;139010;-40
2022/02/25 12:09:53;;;;;;;;;;;7.10;99.90;;;5.45;94.67;101753.44;2566079;30;136710;-40
2022/02/25 12:12:23;;;;;;;;;;;7.00;99.90;;;5.31;96.05;101754.84;2567922;30;138778;-40
2022/02/25 12:15:02;;;;;;;;;;;7.00;99.90;;;5.18;98.96;101750.66;2568559;30;137090;-40
2022/02/25 12:17:55;;;;;;;;;;;6.90;99.90;;;5.06;100.00;101765.41;2569289;30;138527;-40
2022/02/25 12:20:33;;;;;;;;;;;6.70;99.90;;;4.90;100.00;101785.00;2569097;30;137208;-40
2022/02/25 12:23:02;;;;;;;;;;;6.60;99.90;;;4.78;99.99;101770.84;2568231;30;139040;-40
2022/02/25 12:25:36;;;;;;;;;;;6.50;99.90;;;4.71;100.00;101803.03;2567556;30;137111;-40
2022/02/25 12:31:09;;;;;;;;;;;6.30;99.90;;;4.56;100.00;101796.44;2568910;30;136766;-40
2022/02/25 12:33:45;;;;;;;;;;;6.20;99.90;;;4.59;100.00;101799.69;2569212;30;137320;-40
2022/02/25 12:36:29;;;;;;;;;;;6.20;99.90;;;4.59;100.00;101806.94;2567235;30;137228;-40
2022/02/25 12:39:18;;;;;;;;;;;6.20;99.90;;;4.61;100.00;101815.75;2568695;30;138435;-40
2022/02/25 12:41:57;;;;;;;;;;;6.20;99.90;;;4.75;100.00;101807.13;2568950;30;137235;-40
2022/02/25 12:44:28;;;;;;;;;;;6.20;99.90;;;4.79;100.00;101813.09;2567422;30;138099;-40
2022/02/25 12:47:04;;;;;;;;;;;6.30;99.90;;;5.00;100.00;101807.44;2567739;30;137094;-40
2022/02/25 12:49:34;;;;;;;;;;;6.40;99.90;;;5.26;100.00;101812.13;2568607;30;138235;-40
2022/02/25 12:52:05;;;;;;;;;;;6.60;99.90;;;5.47;100.00;101803.72;2570052;30;137234;-38
2022/02/25 12:54:35;;;;;;;;;;;6.80;99.90;;;5.73;100.00;101805.63;2569964;30;138350;-41
2022/02/25 12:57:07;;;;;;;;;;;7.10;99.90;;;6.08;100.00;101807.63;2570700;30;137090;-44
2022/02/25 12:59:46;;;;;;;;;;;7.30;99.90;;;6.29;100.00;101818.06;2570854;30;140365;-41
2022/02/25 13:02:19;;;;;;;;;;;7.60;99.90;;;6.34;97.78;101815.72;2570402;30;136959;-41
2022/02/25 13:04:52;;;;;;;;;;;7.70;99.90;;;6.37;97.99;101820.00;2568549;30;139145;-41
2022/02/25 13:07:24;;;;;;;;;;;7.80;99.90;;;6.44;99.46;101824.63;2569018;30;136699;-41
2022/02/25 13:09:53;;;;;;;;;;;7.90;99.90;;;6.28;94.99;101832.63;2568849;30;138162;-41
2022/02/25 13:12:23;;;;;;;;;;;7.80;99.90;;;6.17;95.66;101840.03;2569801;30;137198;-41
2022/02/25 13:14:54;;;;;;;;;;;7.70;99.90;;;6.08;94.73;101837.41;2567670;30;138104;-41
2022/02/25 13:17:30;;;;;;;;;;;7.60;99.90;;;5.93;93.45;101853.34;2569253;30;137666;-41
2022/02/25 13:20:07;;;;;;;;;;;7.60;99.90;;;5.78;93.94;101855.78;2570431;30;137696;-41
2022/02/25 13:22:41;;;;;;;;;;;7.40;99.90;;;5.56;93.32;101875.00;2568601;30;136710;-41
2022/02/25 13:25:21;;;;;;;;;;;7.30;99.90;;;5.46;94.66;101882.34;2571913;30;139483;-42
2022/02/25 13:27:53;;;;;;;;;;;7.10;99.90;;;5.39;96.44;101887.53;2571708;30;136953;-41
2022/02/25 13:30:38;;;;;;;;;;;7.00;99.90;;;5.29;97.16;101884.03;2568047;30;138377;-41
2022/02/25 13:33:11;;;;;;;;;;;6.90;99.90;;;5.31;98.88;101877.47;2569370;30;137846;-41
2022/02/25 13:35:45;;;;;;;;;;;6.90;99.90;;;5.25;97.08;101875.34;2568441;30;139643;-41
2022/02/25 13:38:16;;;;;;;;;;;6.90;99.90;;;5.38;97.70;101887.69;2569751;30;137019;-41
2022/02/25 13:40:48;;;;;;;;;;;6.90;99.90;;;5.38;99.93;101884.97;2569888;30;138475;-43
2022/02/25 13:43:37;;;;;;;;;;;6.90;99.90;;;5.45;97.77;101889.63;2566821;30;137937;-40
2022/02/25 13:46:05;;;;;;;;;;;7.00;99.90;;;5.38;94.79;101895.81;2569252;30;138090;-41
2022/02/25 13:54:25;;;;;;;;;;;6.90;99.90;;;5.18;93.22;101898.63;2568730;30;137180;-41
2022/02/25 13:56:56;;;;;;;;;;;6.80;99.90;;;5.01;92.72;101893.00;2570304;30;138458;-41
2022/02/25 13:59:26;;;;;;;;;;;6.70;99.90;;;4.95;93.59;101890.88;2567963;30;138194;-41
2022/02/25 14:02:09;;;;;;;;;;;6.60;99.90;;;4.87;92.37;101904.31;2569744;30;137381;-41
2022/02/25 14:04:38;;;;;;;;;;;6.50;99.90;;;4.72;88.67;101912.88;2571429;30;137440;-40
2022/02/25 14:07:08;;;;;;;;;;;6.40;99.90;;;4.60;90.55;101906.81;2569936;30;138195;-41
2022/02/25 14:09:37;;;;;;;;;;;6.30;99.90;;;4.53;90.49;101916.50;2569183;30;137239;-41
2022/02/25 14:12:10;;;;;;;;;;;6.20;99.90;;;4.47;89.65;101912.53;2566843;30;139104;-41
2022/02/25 14:14:42;;;;;;;;;;;6.20;99.90;;;4.40;92.26;101906.00;2567802;30;137545;-41
2022/02/25 14:17:28;;;;;;;;;;;6.10;99.90;;;4.40;93.16;101910.56;2569160;30;139399;-41
2022/02/25 14:19:59;;;;;;;;;;;6.00;99.90;;;4.55;93.88;101908.25;2571267;30;137051;-41
2022/02/25 14:22:49;;;;;;;;;;;6.10;99.90;;;4.93;94.14;101906.41;2570735;30;138876;-41
2022/02/25 14:25:24;;;;;;;;;;;6.30;99.90;;;5.26;93.42;101908.69;2571428;30;137230;-41
2022/02/25 14:28:35;;;;;;;;;;;6.60;99.90;;;5.54;92.15;101906.78;2571023;30;138395;-41
2022/02/25 14:31:04;;;;;;;;;;;6.80;99.90;;;5.77;90.12;101906.34;2570165;30;137099;-41
2022/02/25 14:33:47;;;;;;;;;;;7.10;99.90;;;5.99;88.83;101921.31;2570096;30;138198;-41
2022/02/25 14:36:23;;;;;;;;;;;7.30;99.90;;;6.08;89.28;101921.41;2571807;30;137062;-41
2022/02/25 14:38:52;;;;;;;;;;;7.40;99.90;;;6.22;89.34;101933.56;2570311;30;137084;-41
2022/02/25 14:41:20;;;;;;;;;;;7.60;99.90;;;6.27;87.22;101931.22;2569755;30;137148;-41
2022/02/25 14:43:49;;;;;;;;;;;7.70;99.90;;;6.33;85.97;101936.88;2570315;30;139246;-41
2022/02/25 14:46:17;;;;;;;;;;;7.80;99.90;;;6.43;86.96;101949.47;2570404;30;136937;-41
2022/02/25 14:48:47;;;;;;;;;;;7.90;99.90;;;6.51;88.09;101943.28;2569644;30;137339;-40
2022/02/25 14:51:15;;;;;;;;;;;8.00;99.90;;;6.54;85.21;101948.38;2569559;30;137044;-41
2022/02/25 14:53:43;;;;;;;;;;;8.00;99.90;;;6.62;87.59;101953.84;2572048;30;138411;-41
2022/02/25 14:56:11;;;;;;;;;;;8.10;99.90;;;6.74;85.00;101963.44;2569472;30;136855;-41
2022/02/25 14:58:38;;;;;;;;;;;8.20;99.90;;;6.69;83.22;101963.06;2568876;30;138628;-41
2022/02/25 15:01:07;;;;;;;;;;;8.20;99.90;;;6.61;83.63;101950.28;2570409;30;137040;-41
2022/02/25 15:03:35;;;;;;;;;;;8.20;99.90;;;6.66;84.52;101952.53;2571118;30;138391;-41
2022/02/25 15:06:04;;;;;;;;;;;8.10;99.90;;;6.76;84.28;101956.00;2567639;30;137136;-41
2022/02/25 15:08:32;;;;;;;;;;;8.20;99.90;;;6.84;83.77;101943.47;2571532;30;138224;-42
2022/02/25 15:10:59;;;;;;;;;;;8.30;99.90;;;6.90;81.72;101959.13;2569520;30;136996;-41
2022/02/25 15:13:27;;;;;;;;;;;8.40;99.90;;;7.02;81.37;101952.41;2569653;30;137579;-41
2022/02/25 15:15:57;;;;;;;;;;;8.40;99.90;;;7.02;81.48;101957.84;2571075;30;137394;-42
2022/02/25 15:18:28;;;;;;;;;;;8.50;99.90;;;7.11;80.37;101952.44;2569669;30;139116;-41
2022/02/25 15:20:56;;;;;;;;;;;8.60;99.90;;;7.21;80.17;101958.63;2566076;30;137239;-41
2022/02/25 15:23:23;;;;;;;;;;;8.60;99.90;;;7.31;81.02;101967.47;2570517;30;138736;-41
2022/02/25 15:25:52;;;;;;;;;;;8.70;99.90;;;7.40;78.96;101967.50;2571976;30;136897;-41
2022/02/25 15:28:19;;;;;;;;;;;8.80;99.90;;;7.41;79.16;101977.34;2570203;30;138448;-41
2022/02/25 15:30:47;;;;;;;;;;;8.80;99.90;;;7.28;76.92;101986.81;2568558;30;138026;-41
2022/02/25 15:33:15;;;;;;;;;;;8.80;99.90;;;7.22;79.01;101990.19;2570278;30;138064;-41
2022/02/25 15:35:44;;;;;;;;;;;8.70;99.90;;;7.22;78.11;101990.19;2571537;30;136956;-41
2022/02/25 15:38:13;;;;;;;;;;;8.80;99.90;;;7.30;78.59;102000.25;2570519;30;139810;-41
2022/02/25 15:40:44;;;;;;;;;;;8.80;99.90;;;7.16;78.03;101996.22;2567721;30;137505;-41
2022/02/25 15:43:11;;;;;;;;;;;8.70;99.90;;;6.89;78.98;102009.81;2569293;30;138142;-41
2022/02/25 15:45:58;;;;;;;;;;;8.60;99.90;;;6.66;81.64;102012.22;2571384;30;137145;-41
2022/02/25 15:48:26;;;;;;;;;;;8.40;99.90;;;6.40;83.64;102021.13;2570088;30;137012;-41
2022/02/25 15:50:54;;;;;;;;;;;8.20;99.90;;;6.22;83.66;102031.13;2570498;30;137100;-41
2022/02/25 15:53:21;;;;;;;;;;;8.00;99.90;;;6.13;85.24;102033.75;2573776;30;138358;-41
2022/02/25 15:55:48;;;;;;;;;;;7.80;99.90;;;5.97;87.32;102044.38;2567266;30;137301;-41
2022/02/25 15:58:18;;;;;;;;;;;7.70;99.90;;;5.80;91.61;102040.63;2570488;30;138249;-40
2022/02/25 16:00:46;;;;;;;;;;;7.50;99.90;;;5.40;93.77;102048.06;2567684;30;137763;-41
2022/02/25 16:03:14;;;;;;;;;;;7.20;99.90;;;5.19;96.47;102068.06;2571228;30;138597;-41
2022/02/25 16:05:41;;;;;;;;;;;7.00;99.90;;;5.03;98.15;102074.09;2569283;30;138015;-41
2022/02/25 16:08:11;;;;;;;;;;;6.80;99.90;;;4.95;99.96;102080.22;2570337;30;138210;-41
2022/02/25 16:10:39;;;;;;;;;;;6.70;99.90;;;4.78;100.00;102075.56;2569912;30;137162;-41
2022/02/25 16:13:06;;;;;;;;;;;6.50;99.90;;;4.63;100.00;102077.81;2570500;30;137500;-41
2022/02/25 16:15:34;;;;;;;;;;;6.40;99.90;;;4.44;100.00;102079.53;2572612;30;137070;-41
2022/02/25 16:18:03;;;;;;;;;;;6.30;99.90;;;4.32;100.00;102093.16;2571670;30;138338;-41
2022/02/25 16:20:32;;;;;;;;;;;6.10;99.90;;;4.29;100.00;102101.53;2568148;30;137053;-41
2022/02/25 16:23:00;;;;;;;;;;;6.00;99.90;;;4.16;100.00;102101.81;2568453;30;137490;-41
2022/02/25 16:25:28;;;;;;;;;;;5.90;99.90;;;4.05;100.00;102101.94;2568896;30;137010;-41
2022/02/25 16:27:56;;;;;;;;;;;5.80;99.90;;;4.06;100.00;102109.03;2569753;30;137211;-41
2022/02/25 16:30:23;;;;;;;;;;;5.70;99.90;;;3.94;99.54;102115.53;2568778;30;137484;-40
2022/02/25 16:32:51;;;;;;;;;;;5.70;99.90;;;3.89;100.00;102122.19;2569860;30;138286;-41
2022/02/25 16:35:18;;;;;;;;;;;5.60;99.90;;;3.86;100.00;102119.78;2571808;30;137071;-41
2022/02/25 16:37:45;;;;;;;;;;;5.50;99.90;;;3.86;100.00;102129.72;2567106;30;138359;-41
2022/02/25 16:40:13;;;;;;;;;;;5.60;99.90;;;3.82;100.00;102134.53;2569303;30;136901;-41
2022/02/25 16:42:41;;;;;;;;;;;5.50;99.90;;;3.82;100.00;102136.38;2570727;30;139372;-41
2022/02/25 16:45:09;;;;;;;;;;;5.50;99.90;;;3.84;100.00;102129.84;2569395;30;137148;-41
2022/02/25 16:47:37;;;;;;;;;;;5.50;99.90;;;3.78;100.00;102121.44;2567764;30;138029;-41
2022/02/25 16:50:05;;;;;;;;;;;5.50;99.90;;;3.69;100.00;102128.50;2569122;30;137050;-41
2022/02/25 16:52:35;;;;;;;;;;;5.40;99.90;;;3.66;100.00;102137.75;2571428;30;138965;-41
2022/02/25 16:55:03;;;;;;;;;;;5.40;99.90;;;3.58;100.00;102132.13;2570542;30;137152;-41
2022/02/25 16:57:30;;;;;;;;;;;5.30;99.90;;;3.59;100.00;102142.81;2572228;30;138130;-41
2022/02/25 16:59:57;;;;;;;;;;;5.30;99.90;;;3.50;100.00;102153.53;2568115;30;137789;-41
2022/02/25 17:02:25;;;;;;;;;;;5.20;99.90;;;3.46;100.00;102155.69;2570002;30;138401;-41
2022/02/25 17:04:53;;;;;;;;;;;5.20;99.90;;;3.47;100.00;102170.00;2571663;30;136996;-41
2022/02/25 17:07:20;;;;;;;;;;;5.20;99.90;;;3.37;100.00;102178.91;2567064;30;137757;-41
2022/02/25 17:09:47;;;;;;;;;;;5.10;99.90;;;3.34;100.00;102181.00;2569366;30;136998;-41
2022/02/25 17:12:16;;;;;;;;;;;5.10;99.90;;;3.22;100.00;102199.94;2569270;30;138067;-41
2022/02/25 17:14:44;;;;;;;;;;;5.00;99.90;;;3.15;100.00;102194.22;2568657;30;137864;-41
2022/02/25 17:17:12;;;;;;;;;;;4.90;99.90;;;3.08;100.00;102198.44;2571154;30;138225;-41
2022/02/25 17:19:40;;;;;;;;;;;4.80;99.90;;;3.12;100.00;102207.09;2569769;30;136748;-41
2022/02/25 17:22:09;;;;;;;;;;;4.80;99.90;;;3.09;100.00;102212.75;2569422;30;139087;-41
2022/02/25 17:24:38;;;;;;;;;;;4.80;99.90;;;3.08;100.00;102213.72;2566543;30;136767;-41
2022/02/25 17:27:06;;;;;;;;;;;4.80;99.90;;;3.07;100.00;102226.38;2569984;30;139083;-41
2022/02/25 17:29:34;;;;;;;;;;;4.80;99.90;;;2.94;100.00;102212.19;2569932;30;137143;-41
2022/02/25 17:32:01;;;;;;;;;;;4.80;99.90;;;3.09;100.00;102231.63;2568125;30;138731;-41
2022/02/25 17:34:40;;;;;;;;;;;4.80;99.90;;;3.11;100.00;102238.63;2567565;30;137139;-41
2022/02/25 17:37:07;;;;;;;;;;;4.80;99.90;;;3.09;100.00;102235.19;2569744;30;138801;-41
2022/02/25 17:39:34;;;;;;;;;;;4.80;99.90;;;3.13;100.00;102243.88;2567256;30;137461;-41
2022/02/25 17:42:06;;;;;;;;;;;4.80;99.90;;;3.10;100.00;102253.09;2569884;30;137321;-41
2022/02/25 17:44:34;;;;;;;;;;;4.80;99.90;;;3.11;100.00;102259.31;2569201;30;137154;-41
2022/02/25 17:47:03;;;;;;;;;;;4.80;99.90;;;3.12;100.00;102261.03;2568475;30;137486;-41
2022/02/25 17:49:31;;;;;;;;;;;4.80;99.90;;;3.15;100.00;102260.78;2569464;30;136667;-41
2022/02/25 17:51:58;;;;;;;;;;;4.80;99.90;;;3.13;100.00;102265.44;2569103;30;138657;-41
2022/02/25 17:54:25;;;;;;;;;;;4.80;99.90;;;3.08;100.00;102271.25;2569440;30;136986;-41
2022/02/25 17:56:53;;;;;;;;;;;4.80;99.90;;;3.09;100.00;102269.38;2570434;30;137877;-41
2022/02/25 17:59:21;;;;;;;;;;;4.80;99.90;;;3.03;100.00;102278.84;2571147;30;138038;-41
2022/02/25 18:01:48;;;;;;;;;;;4.70;99.90;;;2.96;100.00;102286.59;2570839;30;138250;-41
2022/02/25 18:04:16;;;;;;;;;;;4.70;99.90;;;2.91;100.00;102288.78;2567746;30;137894;-41
2022/02/25 18:06:44;;;;;;;;;;;4.70;99.90;;;2.86;100.00;102296.41;2570204;30;136789;-41
2022/02/25 18:09:11;;;;;;;;;;;4.60;99.90;;;2.79;100.00;102298.75;2569941;30;137946;-41
2022/02/25 18:11:40;;;;;;;;;;;4.60;99.90;;;2.75;100.00;102299.97;2570604;30;137476;-40
2022/02/25 18:14:08;;;;;;;;;;;4.50;99.90;;;2.64;100.00;102306.22;2570795;30;136842;-41
2022/02/25 18:16:36;;;;;;;;;;;4.50;99.90;;;2.57;100.00;102313.09;2571289;30;138690;-41
2022/02/25 18:19:04;;;;;;;;;;;4.40;99.90;;;2.47;100.00;102317.50;2569948;30;136912;-41
2022/02/25 18:21:35;;;;;;;;;;;4.30;99.90;;;2.38;100.00;102328.03;2571575;30;139022;-41
2022/02/25 18:24:03;;;;;;;;;;;4.20;99.90;;;2.27;100.00;102331.59;2570610;30;137088;-41